Time;durP1;ratioP1;P1;durP2;ratioP2;P2;SDS_P1;SDS_P2;PMS_P1;PMS_P2;Temp;Humidity;BMP_temperature;BMP_pressure;BME280_temperature;BME280_humidity;BME280_pressure;Samples;Min_cycle;Max_cycle;Signal;HPM_P1;HPM_P2
2023/01/20 00:01:45;;;;;;;51.60;30.67;;;0.80;95.40;;;-0.36;87.70;100312.56;5029651;28;20212;-74
2023/01/20 00:04:14;;;;;;;49.70;30.37;;;0.80;95.40;;;-0.36;87.18;100304.66;5029875;28;20209;-74
2023/01/20 00:06:42;;;;;;;48.90;30.23;;;0.70;95.40;;;-0.39;86.55;100314.53;5029658;28;20231;-74
2023/01/20 00:09:16;;;;;;;53.67;30.33;;;0.70;95.40;;;-0.41;87.43;100319.88;5029762;28;20227;-74
2023/01/20 00:11:46;;;;;;;57.70;29.87;;;0.70;95.40;;;-0.42;87.40;100317.38;5029935;28;20301;-75
2023/01/20 00:14:15;;;;;;;49.20;29.83;;;0.70;95.40;;;-0.43;87.64;100320.94;5029623;28;20732;-74
2023/01/20 00:16:43;;;;;;;56.50;31.37;;;0.70;95.40;;;-0.43;87.05;100321.78;5029731;28;20202;-75
2023/01/20 00:19:14;;;;;;;48.13;30.23;;;0.70;95.40;;;-0.46;86.40;100321.16;5029823;28;20231;-74
2023/01/20 00:21:43;;;;;;;45.30;28.23;;;0.70;95.40;;;-0.45;86.68;100320.22;5029912;28;20218;-74
2023/01/20 00:24:11;;;;;;;56.73;30.40;;;0.70;95.40;;;-0.46;87.02;100326.41;5030002;28;20229;-74
2023/01/20 00:26:39;;;;;;;46.80;28.67;;;0.70;95.30;;;-0.46;87.34;100332.50;5029019;28;20231;-74
2023/01/20 00:29:09;;;;;;;47.13;28.00;;;0.70;95.30;;;-0.45;86.38;100338.63;5029296;28;20651;-74
2023/01/20 00:31:37;;;;;;;42.73;27.33;;;0.70;95.70;;;-0.44;85.85;100345.53;5029474;28;20211;-74
2023/01/20 00:34:05;;;;;;;51.50;28.63;;;0.70;95.20;;;-0.47;86.50;100343.13;5028884;28;20216;-75
2023/01/20 00:36:34;;;;;;;43.47;28.13;;;0.60;95.10;;;-0.47;86.14;100356.25;5028911;28;20206;-74
2023/01/20 00:39:03;;;;;;;41.47;27.20;;;0.60;95.10;;;-0.43;86.48;100361.22;5029171;28;20288;-74
2023/01/20 00:41:31;;;;;;;41.40;25.77;;;0.70;95.10;;;-0.43;86.05;100355.97;5028160;28;20199;-74
2023/01/20 00:43:59;;;;;;;47.20;28.83;;;0.70;94.90;;;-0.42;85.48;100359.44;5027965;28;20214;-74
2023/01/20 00:46:29;;;;;;;45.53;28.20;;;0.70;94.90;;;-0.41;86.55;100366.41;5028844;28;20767;-74
2023/01/20 00:48:57;;;;;;;41.23;26.90;;;0.70;94.80;;;-0.38;85.38;100358.31;5029183;28;20258;-74
2023/01/20 00:51:25;;;;;;;43.80;27.70;;;0.70;94.70;;;-0.41;85.21;100364.59;5029188;28;20203;-74
2023/01/20 00:53:53;;;;;;;41.97;25.97;;;0.70;94.70;;;-0.42;85.98;100367.34;5028814;28;20582;-74
2023/01/20 00:56:21;;;;;;;42.27;26.47;;;0.70;94.60;;;-0.44;85.77;100370.06;5028726;28;20203;-74
2023/01/20 00:58:49;;;;;;;42.47;27.30;;;0.70;94.60;;;-0.47;84.91;100372.03;5028334;28;20264;-74
2023/01/20 01:01:17;;;;;;;46.77;28.77;;;0.60;94.60;;;-0.48;85.13;100370.38;5028659;28;20675;-75
2023/01/20 01:03:47;;;;;;;45.87;28.67;;;0.60;94.70;;;-0.45;85.57;100378.06;5028722;28;20211;-74
2023/01/20 01:06:17;;;;;;;42.77;26.63;;;0.70;94.70;;;-0.47;85.96;100377.31;5028934;28;20219;-75
2023/01/20 01:08:46;;;;;;;46.93;27.03;;;0.60;94.50;;;-0.54;84.84;100377.72;5029183;28;20227;-75
2023/01/20 01:11:14;;;;;;;46.63;28.23;;;0.60;94.60;;;-0.53;84.82;100387.28;5029380;28;20203;-74
2023/01/20 01:13:42;;;;;;;44.30;27.33;;;0.60;94.60;;;-0.55;85.61;100391.78;5028595;28;20276;-74
2023/01/20 01:16:14;;;;;;;40.63;25.87;;;0.60;94.60;;;-0.53;85.29;100389.06;5028891;28;20207;-74
2023/01/20 01:18:43;;;;;;;40.33;26.07;;;0.60;94.60;;;-0.52;84.86;100391.63;5028949;28;20729;-74
2023/01/20 01:21:16;;;;;;;40.83;26.93;;;0.60;94.60;;;-0.52;85.45;100393.41;5028854;28;20203;-74
2023/01/20 01:23:44;;;;;;;41.83;25.87;;;0.60;94.50;;;-0.56;85.18;100395.38;5028546;28;20210;-75
2023/01/20 01:26:13;;;;;;;43.37;27.23;;;0.60;94.50;;;-0.57;84.81;100398.94;5028575;28;20210;-74
2023/01/20 01:28:41;;;;;;;44.10;26.77;;;0.60;94.60;;;-0.60;84.83;100401.78;5027397;28;20587;-74
2023/01/20 01:31:10;;;;;;;46.30;28.13;;;0.50;94.60;;;-0.61;85.49;100396.59;5028815;28;20561;-74
2023/01/20 01:33:40;;;;;;;47.10;27.83;;;0.50;94.80;;;-0.65;85.77;100401.19;5028542;28;20257;-74
2023/01/20 01:36:15;;;;;;;42.30;27.70;;;0.50;94.80;;;-0.65;85.20;100400.38;5028952;28;20218;-74
2023/01/20 01:38:44;;;;;;;49.80;28.07;;;0.50;94.80;;;-0.67;86.28;100411.00;5028571;28;20226;-74
2023/01/20 01:41:25;;;;;;;45.20;28.37;;;0.50;94.90;;;-0.70;85.38;100403.31;5028499;28;20218;-74
2023/01/20 01:44:07;;;;;;;45.40;28.93;;;0.50;94.90;;;-0.70;85.34;100411.19;5028729;28;20203;-74
2023/01/20 01:46:36;;;;;;;45.07;28.10;;;0.40;95.30;;;-0.70;85.70;100411.19;5028277;28;20227;-74
2023/01/20 01:49:14;;;;;;;51.20;30.37;;;0.50;94.90;;;-0.72;85.80;100415.69;5029161;28;20226;-75
2023/01/20 01:51:51;;;;;;;46.30;28.23;;;0.40;94.90;;;-0.73;86.51;100403.50;5028938;28;20237;-75
2023/01/20 01:54:25;;;;;;;48.63;29.03;;;0.50;94.90;;;-0.73;86.76;100405.28;5031247;28;20206;-74
2023/01/20 01:56:53;;;;;;;46.70;29.37;;;0.40;95.00;;;-0.75;86.65;100400.09;5031698;28;20199;-75
2023/01/20 01:59:21;;;;;;;47.53;28.57;;;0.40;95.00;;;-0.75;86.78;100405.34;5032780;28;20222;-74
2023/01/20 02:01:52;;;;;;;54.57;29.70;;;0.40;95.00;;;-0.75;85.76;100410.63;5032601;28;20265;-74
2023/01/20 02:04:24;;;;;;;43.40;28.87;;;0.40;95.00;;;-0.77;85.47;100409.88;5032852;28;20293;-74
2023/01/20 02:06:58;;;;;;;45.90;27.87;;;0.40;95.00;;;-0.77;85.70;100412.50;5032253;28;20249;-75
2023/01/20 02:09:28;;;;;;;44.10;27.77;;;0.40;94.90;;;-0.75;85.78;100409.75;5032143;28;20848;-74
2023/01/20 02:12:01;;;;;;;48.03;28.83;;;0.40;94.90;;;-0.75;86.22;100421.13;5031926;28;20209;-74
2023/01/20 02:14:35;;;;;;;48.03;28.73;;;0.40;94.80;;;-0.76;86.51;100414.22;5032368;28;20199;-74
2023/01/20 02:17:20;;;;;;;45.10;28.63;;;0.40;94.80;;;-0.78;86.04;100416.06;5031707;28;20715;-74
2023/01/20 02:20:36;;;;;;;44.90;27.17;;;0.40;94.80;;;-0.78;85.33;100421.31;5031841;28;20596;-74
2023/01/20 02:23:21;;;;;;;47.57;29.80;;;0.40;94.80;;;-0.78;85.34;100420.47;5031834;28;20215;-74
2023/01/20 02:26:47;;;;;;;42.70;27.60;;;0.40;94.90;;;-0.80;85.65;100428.47;5031505;28;20211;-75
2023/01/20 02:30:10;;;;;;;41.17;27.07;;;0.30;94.80;;;-0.83;86.39;100433.94;5031067;28;20226;-74
2023/01/20 02:32:52;;;;;;;46.40;28.13;;;0.30;94.80;;;-0.84;85.62;100434.84;5031654;28;20210;-74
2023/01/20 02:35:30;;;;;;;46.17;28.53;;;0.30;94.90;;;-0.85;85.35;100434.94;5031714;28;20194;-74
2023/01/20 02:38:13;;;;;;;49.37;29.77;;;0.30;94.90;;;-0.89;85.44;100439.53;5031329;28;20763;-74
2023/01/20 02:40:52;;;;;;;51.10;31.03;;;0.30;94.90;;;-0.88;86.36;100441.25;5031190;28;20222;-74
2023/01/20 02:43:31;;;;;;;49.43;30.17;;;0.30;94.90;;;-0.90;85.36;100440.50;5031493;28;20218;-74
2023/01/20 02:46:23;;;;;;;53.53;31.10;;;0.30;94.90;;;-0.92;85.76;100445.00;5008378;28;20779;-74
2023/01/20 02:49:01;;;;;;;48.37;29.67;;;0.30;95.00;;;-0.92;86.52;100455.50;5031416;28;20253;-74
2023/01/20 02:51:37;;;;;;;50.23;29.57;;;0.30;95.00;;;-0.94;85.69;100454.75;5031398;28;20206;-74
2023/01/20 02:54:12;;;;;;;46.17;29.10;;;0.20;95.00;;;-0.92;86.51;100460.75;5031389;28;20198;-74
2023/01/20 02:56:40;;;;;;;50.00;29.47;;;0.20;95.00;;;-0.92;85.51;100457.28;5031315;28;20558;-74
2023/01/20 02:59:13;;;;;;;47.67;29.00;;;0.20;95.00;;;-0.90;85.56;100464.16;5030793;28;20607;-75
2023/01/20 03:01:48;;;;;;;47.73;28.13;;;0.20;95.00;;;-0.90;86.14;100464.16;5031673;28;20191;-75
2023/01/20 03:04:25;;;;;;;51.37;30.73;;;0.30;95.00;;;-0.89;85.83;100473.69;5031127;28;20191;-74
2023/01/20 03:06:58;;;;;;;43.30;28.37;;;0.20;94.90;;;-0.90;85.62;100477.28;5030632;28;20752;-75
2023/01/20 03:09:32;;;;;;;51.53;29.37;;;0.20;95.00;;;-0.94;85.89;100478.41;5030797;28;20230;-75
2023/01/20 03:12:09;;;;;;;47.20;29.60;;;0.20;95.30;;;-0.98;85.31;100476.91;5029644;28;20646;-74
2023/01/20 03:14:38;;;;;;;50.33;29.97;;;0.20;94.90;;;-0.99;85.70;100477.84;5030623;28;20206;-75
2023/01/20 03:17:06;;;;;;;49.30;30.07;;;0.20;94.90;;;-1.00;85.28;100478.78;5030326;28;20210;-75
2023/01/20 03:19:36;;;;;;;50.50;28.60;;;0.20;94.90;;;-1.00;85.85;100478.78;5030563;28;20594;-74
2023/01/20 03:22:04;;;;;;;47.47;29.57;;;0.20;94.90;;;-0.99;86.74;100483.09;5030616;28;20257;-74
2023/01/20 03:24:37;;;;;;;46.97;27.73;;;0.10;95.00;;;-1.02;85.48;100480.66;5030753;28;20257;-74
2023/01/20 03:27:06;;;;;;;47.97;28.90;;;0.10;94.90;;;-1.03;85.89;100479.00;5030368;28;20599;-75
2023/01/20 03:29:34;;;;;;;43.40;27.90;;;0.10;94.90;;;-1.05;85.25;100476.44;5030501;28;20325;-75
2023/01/20 03:32:08;;;;;;;49.80;28.70;;;0.10;94.90;;;-0.98;85.88;100481.31;5030651;28;20276;-74
2023/01/20 03:34:41;;;;;;;41.83;26.63;;;0.20;94.90;;;-0.97;86.12;100488.28;5030105;28;20205;-74
2023/01/20 03:37:12;;;;;;;47.53;29.03;;;0.20;94.80;;;-1.02;85.25;100488.53;5028974;28;20675;-74
2023/01/20 03:39:40;;;;;;;45.77;28.53;;;0.20;94.70;;;-1.03;84.97;100494.75;5030183;28;20234;-74
2023/01/20 03:42:16;;;;;;;42.87;27.13;;;0.20;94.70;;;-0.99;85.54;100506.75;5029898;28;20203;-74
2023/01/20 03:45:00;;;;;;;46.57;28.53;;;0.10;94.70;;;-0.97;85.10;100510.13;5029993;28;20606;-74
2023/01/20 03:47:51;;;;;;;45.33;27.13;;;0.20;94.60;;;-0.98;85.04;100516.31;5029721;28;20269;-74
2023/01/20 03:50:36;;;;;;;46.70;28.80;;;0.20;94.60;;;-0.95;86.06;100518.75;5030460;28;20218;-74
2023/01/20 03:53:18;;;;;;;46.97;29.17;;;0.20;94.70;;;-0.96;84.48;100513.63;5030626;28;20191;-74
2023/01/20 03:55:53;;;;;;;46.93;27.03;;;0.20;94.50;;;-0.93;84.64;100516.91;5030187;28;20202;-74
2023/01/20 03:58:27;;;;;;;48.17;27.90;;;0.20;94.50;;;-0.91;85.29;100514.16;5030074;28;20376;-74
2023/01/20 04:00:57;;;;;;;41.20;27.67;;;0.20;94.30;;;-0.95;84.52;100518.75;5030080;28;20424;-74
2023/01/20 04:03:29;;;;;;;46.50;27.47;;;0.20;94.30;;;-0.96;84.25;100522.34;5029797;28;20598;-74
2023/01/20 04:06:05;;;;;;;46.47;28.57;;;0.10;94.40;;;-1.00;84.46;100528.72;5029661;28;20305;-75
2023/01/20 04:08:39;;;;;;;47.63;28.80;;;0.10;94.30;;;-0.99;84.98;100522.50;5029678;28;20741;-74
2023/01/20 04:11:08;;;;;;;43.37;26.43;;;0.10;94.30;;;-0.96;83.48;100532.00;5029732;28;20210;-74
2023/01/20 04:13:37;;;;;;;39.63;26.03;;;0.10;94.10;;;-0.94;82.92;100530.97;5029743;28;20218;-75
2023/01/20 04:16:13;;;;;;;43.93;27.13;;;0.10;93.70;;;-0.92;83.69;100536.97;5029268;28;20218;-74
2023/01/20 04:18:42;;;;;;;41.07;26.37;;;0.20;93.60;;;-0.90;82.38;100540.38;5029699;28;20265;-75
2023/01/20 04:21:19;;;;;;;46.27;25.17;;;0.20;93.40;;;-0.92;83.63;100550.09;5029546;28;20638;-75
2023/01/20 04:23:55;;;;;;;45.93;27.60;;;0.10;93.60;;;-0.98;83.93;100547.84;5029481;28;20206;-75
2023/01/20 04:26:23;;;;;;;41.40;25.53;;;0.10;93.80;;;-1.03;84.03;100542.84;5029341;28;20209;-74
2023/01/20 04:28:55;;;;;;;44.83;25.00;;;0.10;94.00;;;-1.14;85.07;100541.84;5029605;28;20234;-74
2023/01/20 04:31:23;;;;;;;45.80;26.40;;;0.00;94.20;;;-1.16;84.71;100557.66;5029335;28;20214;-75
2023/01/20 04:33:58;;;;;;;42.13;25.03;;;0.00;94.30;;;-1.15;84.40;100548.00;5029606;28;20218;-74
2023/01/20 04:36:28;;;;;;;42.00;26.87;;;-0.10;94.30;;;-1.18;84.47;100564.81;5028995;28;20817;-74
2023/01/20 04:38:56;;;;;;;41.27;26.00;;;0.00;94.30;;;-1.21;84.56;100558.88;5029175;28;20227;-74
2023/01/20 04:41:24;;;;;;;46.37;27.83;;;-0.10;94.40;;;-1.20;85.18;100571.09;5029599;28;20207;-74
2023/01/20 04:43:52;;;;;;;40.77;25.47;;;-0.10;94.50;;;-1.19;85.13;100572.75;5029253;28;20221;-74
2023/01/20 04:46:20;;;;;;;42.70;26.23;;;0.00;94.50;;;-1.17;85.46;100573.53;5029207;28;20207;-74
2023/01/20 04:48:48;;;;;;;43.50;26.40;;;0.00;94.50;;;-1.16;85.08;100573.44;5028148;28;20313;-74
2023/01/20 04:51:16;;;;;;;40.60;25.17;;;0.00;94.50;;;-1.17;84.89;100581.41;5029518;28;20199;-74
2023/01/20 04:53:46;;;;;;;41.93;25.63;;;0.00;94.30;;;-1.16;84.68;100569.94;5031283;28;20203;-74
2023/01/20 04:56:15;;;;;;;42.53;26.03;;;0.00;94.30;;;-1.13;84.15;100572.44;5033591;28;20801;-75
2023/01/20 04:58:44;;;;;;;40.40;24.20;;;0.00;94.20;;;-1.11;85.19;100573.16;5029382;28;20226;-74
2023/01/20 05:01:12;;;;;;;40.33;24.83;;;0.00;94.20;;;-1.13;83.90;100572.44;5029247;28;20222;-76
2023/01/20 05:03:40;;;;;;;41.70;26.20;;;0.00;94.20;;;-1.16;84.95;100576.06;5029465;28;20206;-75
2023/01/20 05:06:10;;;;;;;40.20;24.87;;;0.00;94.20;;;-1.14;84.88;100574.19;5029315;28;20214;-75
2023/01/20 05:08:38;;;;;;;38.60;25.13;;;0.00;94.00;;;-1.11;84.20;100576.66;5028290;28;20249;-75
2023/01/20 05:11:08;;;;;;;37.17;23.80;;;0.00;93.90;;;-1.08;83.44;100580.88;5029563;28;20198;-76
2023/01/20 05:13:38;;;;;;;41.27;24.53;;;0.00;93.60;;;-1.08;82.53;100580.88;5029141;28;20516;-74
2023/01/20 05:16:07;;;;;;;37.37;23.67;;;0.00;93.50;;;-1.09;82.14;100585.28;5028700;28;20202;-63
2023/01/20 05:18:35;;;;;;;38.90;23.97;;;0.00;93.10;;;-1.12;82.68;100589.84;5028113;28;20280;-63
2023/01/20 05:21:06;;;;;;;34.37;23.30;;;0.00;93.30;;;-1.14;82.67;100591.75;5028865;28;20568;-63
2023/01/20 05:23:35;;;;;;;38.27;23.83;;;-0.10;93.10;;;-1.17;82.01;100597.19;5030054;28;20569;-72
2023/01/20 05:26:03;;;;;;;37.67;24.43;;;-0.10;93.30;;;-1.22;82.18;100599.22;5029515;28;20210;-72
2023/01/20 05:28:32;;;;;;;42.73;26.93;;;-0.20;93.40;;;-1.16;83.01;100601.47;5030359;28;20237;-71
2023/01/20 05:31:00;;;;;;;41.83;26.87;;;-0.10;93.20;;;-1.21;80.88;100600.91;5033779;28;20206;-72
2023/01/20 05:33:29;;;;;;;43.60;26.80;;;-0.20;92.80;;;-1.27;81.53;100601.28;5033872;28;20294;-72
2023/01/20 05:35:57;;;;;;;41.53;26.20;;;-0.20;92.90;;;-1.33;82.38;100606.84;5033510;28;20211;-72
2023/01/20 05:38:25;;;;;;;43.47;26.07;;;-0.30;93.10;;;-1.37;82.10;100615.88;5033688;28;20257;-72
2023/01/20 05:41:00;;;;;;;40.10;27.13;;;-0.30;93.20;;;-1.40;81.43;100611.63;5032560;28;20214;-71
2023/01/20 05:43:28;;;;;;;43.67;26.83;;;-0.40;93.00;;;-1.42;81.27;100610.88;5033261;28;20214;-72
2023/01/20 05:45:57;;;;;;;43.90;26.20;;;-0.40;92.80;;;-1.32;80.96;100619.91;5032931;28;20214;-72
2023/01/20 05:48:26;;;;;;;41.03;25.93;;;-0.30;92.70;;;-1.36;80.66;100614.91;5033175;28;20239;-71
2023/01/20 05:50:54;;;;;;;37.07;24.33;;;-0.30;92.50;;;-1.29;80.30;100618.88;5032533;28;20199;-72
2023/01/20 05:53:22;;;;;;;37.27;24.43;;;-0.30;92.40;;;-1.29;81.15;100618.88;5033327;28;20209;-72
2023/01/20 05:55:58;;;;;;;37.33;24.23;;;-0.30;92.30;;;-1.32;81.05;100622.53;5033066;28;20207;-71
2023/01/20 05:58:27;;;;;;;33.53;22.97;;;-0.30;92.40;;;-1.39;80.59;100622.97;5032769;28;20374;-71
2023/01/20 06:01:04;;;;;;;35.67;23.10;;;-0.40;92.20;;;-1.44;80.43;100627.66;5032890;28;20269;-71
2023/01/20 06:03:32;;;;;;;37.30;22.87;;;-0.40;92.10;;;-1.56;79.95;100632.66;5032962;28;20683;-71
2023/01/20 06:06:00;;;;;;;36.63;23.53;;;-0.60;92.30;;;-1.59;80.77;100639.88;5032941;28;20207;-71
2023/01/20 06:08:29;;;;;;;33.90;21.47;;;-0.60;92.40;;;-1.44;79.77;100640.78;5032719;28;20231;-71
2023/01/20 06:10:57;;;;;;;38.33;23.77;;;-0.50;92.40;;;-1.46;80.02;100643.47;5033369;28;20195;-71
2023/01/20 06:13:25;;;;;;;36.73;23.37;;;-0.40;92.20;;;-1.50;80.01;100646.34;5033059;28;20211;-72
2023/01/20 06:15:55;;;;;;;36.30;24.10;;;-0.50;92.10;;;-1.43;79.42;100650.34;5032367;28;20211;-71
2023/01/20 06:18:24;;;;;;;37.00;23.70;;;-0.40;92.00;;;-1.54;79.29;100651.78;5032867;28;20299;-72
2023/01/20 06:20:57;;;;;;;35.50;23.90;;;-0.50;91.60;;;-1.58;78.92;100655.53;5033080;28;20238;-72
2023/01/20 06:23:25;;;;;;;35.53;22.67;;;-0.60;91.60;;;-1.58;80.35;100652.91;5033021;28;20338;-72
2023/01/20 06:26:00;;;;;;;35.93;22.57;;;-0.60;92.10;;;-1.64;79.25;100661.09;5032239;28;20579;-72
2023/01/20 06:28:28;;;;;;;40.37;22.93;;;-0.70;92.00;;;-1.75;79.64;100658.25;5032829;28;20230;-72
2023/01/20 06:31:01;;;;;;;37.83;25.23;;;-0.80;92.10;;;-1.78;80.71;100657.56;5032990;28;20210;-72
2023/01/20 06:33:32;;;;;;;33.70;22.50;;;-0.80;92.60;;;-1.80;80.63;100665.53;5032798;28;20188;-72
2023/01/20 06:36:01;;;;;;;37.83;24.23;;;-0.80;92.50;;;-1.83;80.46;100670.94;5032186;28;20187;-73
2023/01/20 06:38:32;;;;;;;34.87;22.77;;;-0.80;92.30;;;-1.76;80.75;100672.28;5031167;28;20229;-73
2023/01/20 06:41:02;;;;;;;38.80;24.40;;;-0.80;92.70;;;-1.80;80.72;100676.00;5031343;28;20211;-74
2023/01/20 06:43:32;;;;;;;37.63;23.23;;;-0.80;92.50;;;-1.74;79.96;100675.66;5029560;28;20214;-73
2023/01/20 06:46:01;;;;;;;37.97;24.80;;;-0.70;92.20;;;-1.76;79.66;100677.53;5031321;28;20210;-73
2023/01/20 06:48:32;;;;;;;41.40;25.37;;;-0.70;92.00;;;-1.88;80.23;100683.44;5031224;28;20234;-73
2023/01/20 06:51:01;;;;;;;41.10;26.17;;;-0.80;92.20;;;-1.84;79.68;100692.00;5031401;28;20337;-72
2023/01/20 06:53:30;;;;;;;36.50;24.47;;;-0.80;92.00;;;-1.82;78.94;100698.88;5030803;28;20213;-73
2023/01/20 06:56:00;;;;;;;38.80;25.20;;;-0.70;91.90;;;-1.79;80.10;100698.72;5030798;28;20199;-73
2023/01/20 06:58:30;;;;;;;42.90;25.80;;;-0.70;91.90;;;-1.81;79.14;100700.56;5031171;28;20910;-73
2023/01/20 07:01:05;;;;;;;75.30;35.90;;;-0.80;91.60;;;-1.90;81.67;100706.31;5031227;28;20199;-73
2023/01/20 07:03:35;;;;;;;77.13;38.77;;;-0.80;92.50;;;-1.98;82.48;100712.88;5031403;28;20225;-73
2023/01/20 07:06:14;;;;;;;79.00;37.13;;;-0.90;93.10;;;-1.98;82.49;100712.88;5031046;28;20246;-73
2023/01/20 07:08:43;;;;;;;55.43;31.60;;;-0.90;93.40;;;-1.99;82.88;100727.78;5030292;28;20599;-74
2023/01/20 07:11:12;;;;;;;46.23;28.40;;;-0.90;93.60;;;-2.02;83.75;100727.13;5031229;28;20214;-74
2023/01/20 07:13:41;;;;;;;41.73;26.23;;;-0.90;93.70;;;-1.99;83.23;100738.28;5030955;28;20584;-73
2023/01/20 07:16:10;;;;;;;37.53;24.43;;;-0.90;93.80;;;-2.03;82.97;100736.75;5030700;28;20687;-74
2023/01/20 07:18:47;;;;;;;41.03;25.63;;;-0.90;93.60;;;-1.99;83.09;100738.28;5030807;28;20314;-75
2023/01/20 07:21:15;;;;;;;41.63;25.37;;;-0.90;93.70;;;-1.98;83.56;100745.22;5030775;28;20226;-73
2023/01/20 07:23:44;;;;;;;36.70;24.70;;;-0.90;93.60;;;-1.96;83.28;100747.75;5030563;28;20237;-74
2023/01/20 07:26:15;;;;;;;38.70;24.70;;;-0.80;93.70;;;-1.94;83.71;100746.75;5030524;28;20207;-73
2023/01/20 07:28:43;;;;;;;36.67;24.67;;;-0.80;93.70;;;-1.90;83.00;100756.16;5030499;28;20230;-74
2023/01/20 07:31:13;;;;;;;41.73;24.67;;;-0.80;93.70;;;-1.89;83.65;100757.88;5029674;28;20202;-74
2023/01/20 07:33:44;;;;;;;36.73;24.50;;;-0.80;93.80;;;-1.88;83.81;100754.28;5024390;28;20286;-73
2023/01/20 07:36:14;;;;;;;37.17;23.40;;;-0.80;93.90;;;-1.84;83.67;100762.84;5030235;28;20207;-73
2023/01/20 07:38:46;;;;;;;37.20;24.57;;;-0.70;94.00;;;-1.81;83.31;100763.53;5030190;28;20229;-73
2023/01/20 07:41:15;;;;;;;37.20;23.43;;;-0.70;93.90;;;-1.76;84.02;100761.53;5030205;28;20207;-73
2023/01/20 07:43:44;;;;;;;38.17;23.13;;;-0.60;93.90;;;-1.74;83.46;100769.28;5030134;28;20226;-73
2023/01/20 07:46:14;;;;;;;36.27;24.73;;;-0.60;93.80;;;-1.71;83.19;100764.72;5029971;28;20198;-73
2023/01/20 07:48:43;;;;;;;35.10;22.07;;;-0.60;93.80;;;-1.72;84.14;100770.09;5030141;28;20230;-73
2023/01/20 07:51:14;;;;;;;37.60;23.33;;;-0.70;93.80;;;-1.75;84.27;100773.72;5029665;28;20570;-74
2023/01/20 07:53:45;;;;;;;37.90;23.23;;;-0.70;93.90;;;-1.74;84.37;100782.41;5030622;28;20207;-73
2023/01/20 07:56:16;;;;;;;36.30;24.47;;;-0.70;94.10;;;-1.73;84.04;100787.59;5030281;28;20206;-73
2023/01/20 07:58:45;;;;;;;34.67;22.97;;;-0.60;94.10;;;-1.73;84.99;100784.97;5030597;28;20227;-73
2023/01/20 08:01:16;;;;;;;38.30;25.10;;;-0.60;94.20;;;-1.75;84.58;100789.47;5030085;28;20206;-73
2023/01/20 08:03:46;;;;;;;41.23;26.60;;;-0.60;94.40;;;-1.76;85.23;100785.16;5030314;28;20217;-73
2023/01/20 08:06:18;;;;;;;35.60;24.50;;;-0.60;94.70;;;-1.74;85.20;100793.78;5030189;28;20213;-73
2023/01/20 08:08:46;;;;;;;46.27;28.07;;;-0.60;94.80;;;-1.75;86.19;100786.84;5030115;28;20227;-73
2023/01/20 08:11:18;;;;;;;44.13;28.83;;;-0.60;95.00;;;-1.72;85.99;100789.31;5030198;28;20210;-73
2023/01/20 08:13:47;;;;;;;41.80;28.27;;;-0.50;95.20;;;-1.66;86.50;100803.88;5029596;28;20226;-72
2023/01/20 08:16:18;;;;;;;46.67;28.20;;;-0.50;95.20;;;-1.63;87.14;100799.31;5029697;28;20207;-73
2023/01/20 08:18:48;;;;;;;45.03;29.20;;;-0.40;95.20;;;-1.58;86.41;100805.19;5029983;28;20231;-73
2023/01/20 08:21:23;;;;;;;42.63;27.53;;;-0.40;95.10;;;-1.54;85.78;100811.06;5029907;28;20678;-74
2023/01/20 08:23:51;;;;;;;41.53;27.67;;;-0.40;95.00;;;-1.50;86.12;100815.25;5029615;28;20206;-73
2023/01/20 08:26:19;;;;;;;47.53;29.73;;;-0.30;94.90;;;-1.48;86.31;100809.91;5029283;28;20203;-73
2023/01/20 08:28:48;;;;;;;43.13;26.97;;;-0.30;94.80;;;-1.46;85.63;100821.19;5029462;28;20227;-73
2023/01/20 08:31:19;;;;;;;38.27;26.73;;;-0.30;94.80;;;-1.43;85.99;100831.50;5029754;28;20203;-74
2023/01/20 08:33:52;;;;;;;41.50;26.70;;;-0.30;94.70;;;-1.41;85.70;100833.16;5029328;28;20218;-73
2023/01/20 08:36:24;;;;;;;44.50;27.13;;;-0.20;94.60;;;-1.40;85.74;100836.59;5027086;28;20210;-73
2023/01/20 08:38:54;;;;;;;41.97;27.83;;;-0.30;94.50;;;-1.39;84.93;100840.94;5028439;28;20714;-73
2023/01/20 08:41:26;;;;;;;43.10;27.03;;;-0.30;94.50;;;-1.38;85.86;100847.88;5028746;28;20576;-74
2023/01/20 08:43:57;;;;;;;46.77;29.20;;;-0.30;94.50;;;-1.36;86.50;100849.50;5029188;28;20242;-74
2023/01/20 08:46:25;;;;;;;46.90;28.63;;;-0.20;95.00;;;-1.31;86.38;100847.47;5029130;28;20207;-73
2023/01/20 08:48:55;;;;;;;48.97;27.53;;;-0.10;95.20;;;-1.26;86.16;100855.09;5028452;28;20227;-73
2023/01/20 08:51:29;;;;;;;42.83;27.30;;;-0.10;95.10;;;-1.24;86.32;100848.84;5029294;28;20214;-73
2023/01/20 08:53:57;;;;;;;47.00;28.00;;;0.00;95.10;;;-1.21;85.62;100845.19;5029546;28;20267;-73
2023/01/20 08:56:26;;;;;;;45.53;27.23;;;0.00;95.00;;;-1.19;86.93;100852.06;5029240;28;20239;-73
2023/01/20 08:58:55;;;;;;;45.40;27.33;;;0.00;95.10;;;-1.18;85.88;100851.13;5029343;28;20230;-73
2023/01/20 09:01:27;;;;;;;40.87;26.37;;;0.00;95.00;;;-1.15;85.90;100847.47;5028805;28;20572;-74
2023/01/20 09:03:57;;;;;;;45.77;27.60;;;0.00;94.90;;;-1.14;87.08;100849.19;5032908;28;20210;-73
2023/01/20 09:06:40;;;;;;;42.30;26.43;;;0.10;95.10;;;-1.12;86.44;100853.41;5030691;28;20203;-73
2023/01/20 09:09:08;;;;;;;40.27;26.13;;;0.10;95.00;;;-1.10;85.26;100861.22;5030320;28;20301;-75
2023/01/20 09:11:38;;;;;;;39.00;25.17;;;0.10;94.80;;;-1.09;85.39;100862.91;5032200;28;20207;-73
2023/01/20 09:14:06;;;;;;;43.90;26.10;;;0.10;94.80;;;-1.07;86.08;100869.78;5030393;28;20217;-73
2023/01/20 09:16:34;;;;;;;42.40;28.33;;;0.10;94.80;;;-1.04;85.52;100871.41;5032610;28;20202;-73
2023/01/20 09:19:04;;;;;;;45.30;27.97;;;0.10;94.80;;;-1.00;86.64;100877.34;5030938;28;20317;-74
2023/01/20 09:21:32;;;;;;;46.17;26.30;;;0.20;94.80;;;-0.95;86.23;100881.41;5032775;28;20206;-73
2023/01/20 09:24:00;;;;;;;55.67;29.20;;;0.30;94.80;;;-0.95;85.73;100881.41;5027712;28;20209;-73
2023/01/20 09:26:37;;;;;;;49.03;26.83;;;0.20;94.70;;;-0.93;85.77;100882.19;5032223;28;20211;-73
2023/01/20 09:29:09;;;;;;;38.93;25.00;;;0.30;94.70;;;-0.89;85.51;100886.31;5032981;28;20326;-74
2023/01/20 09:31:39;;;;;;;39.33;24.60;;;0.30;94.60;;;-0.87;85.15;100879.22;5032723;28;20643;-74
2023/01/20 09:34:08;;;;;;;38.50;26.80;;;0.30;94.70;;;-0.87;85.26;100889.72;5032452;28;20221;-73
2023/01/20 09:36:37;;;;;;;38.13;24.50;;;0.30;94.80;;;-0.85;86.69;100892.25;5031944;28;20198;-74
2023/01/20 09:44:49;;;;;;;43.13;26.03;;;0.40;94.80;;;-0.77;86.21;100906.69;5032077;28;20632;-74
2023/01/20 09:47:29;;;;;;;50.00;31.60;;;0.40;94.70;;;-0.75;86.21;100907.44;5032544;28;20198;-73
2023/01/20 09:53:48;;;;;;;40.93;25.90;;;0.50;94.80;;;-0.70;85.64;100910.66;5032350;28;20543;-73
2023/01/20 09:56:21;;;;;;;39.23;25.70;;;0.50;94.80;;;-0.63;84.70;100909.41;5032018;28;20207;-75
2023/01/20 09:58:57;;;;;;;44.43;32.03;;;0.60;94.40;;;-0.61;85.86;100911.91;5032461;28;20223;-73
2023/01/20 10:01:36;;;;;;;52.97;33.83;;;0.50;94.50;;;-0.57;85.87;100909.03;5032282;28;20241;-73
2023/01/20 10:04:14;;;;;;;48.83;30.47;;;0.60;94.50;;;-0.55;85.42;100915.06;5032920;28;20215;-74
2023/01/20 10:06:49;;;;;;;53.50;40.57;;;0.60;94.50;;;-0.53;85.66;100918.47;5032272;28;20206;-74
2023/01/20 10:09:30;;;;;;;40.20;26.47;;;0.70;94.40;;;-0.53;85.21;100921.09;5032364;28;20240;-73
2023/01/20 10:12:09;;;;;;;43.50;27.33;;;0.70;94.30;;;-0.52;85.62;100921.94;5032269;28;20218;-74
2023/01/20 10:14:44;;;;;;;44.67;29.37;;;0.70;94.40;;;-0.53;86.25;100923.72;5031530;28;20206;-74
2023/01/20 10:17:21;;;;;;;41.47;26.90;;;0.60;94.50;;;-0.52;86.16;100927.22;5032045;28;20225;-74
2023/01/20 10:19:58;;;;;;;37.73;26.33;;;0.70;94.50;;;-0.49;84.63;100926.19;5031998;28;20230;-75
2023/01/20 10:22:37;;;;;;;41.10;26.93;;;0.70;94.40;;;-0.46;85.72;100928.63;5032138;28;20201;-74
2023/01/20 10:25:17;;;;;;;41.33;26.63;;;0.70;94.40;;;-0.43;85.97;100926.69;5026463;28;20219;-73
2023/01/20 10:27:53;;;;;;;43.93;28.07;;;0.70;94.50;;;-0.41;86.01;100922.16;5030154;28;20202;-75
2023/01/20 10:30:30;;;;;;;42.30;27.23;;;0.80;94.90;;;-0.38;85.21;100931.69;5031483;28;20815;-73
2023/01/20 10:33:06;;;;;;;41.83;27.90;;;0.80;94.50;;;-0.37;84.86;100925.47;5031602;28;20290;-75